sensor_id;sensor_type;location;lat;lon;timestamp;pressure;altitude;pressure_sealevel;temperature;humidity
69247;BME280;56358;56.328;43.992;2023-02-01T00:01:57;99828.97;;;-2.30;68.45
69247;BME280;56358;56.328;43.992;2023-02-01T00:03:58;99843.66;;;-2.24;68.50
69247;BME280;56358;56.328;43.992;2023-02-01T00:05:59;99799.59;;;-2.41;68.50
69247;BME280;56358;56.328;43.992;2023-02-01T00:08:00;99841.03;;;-2.24;68.53
69247;BME280;56358;56.328;43.992;2023-02-01T00:10:00;99853.31;;;-2.25;68.65
69247;BME280;56358;56.328;43.992;2023-02-01T00:12:01;99817.81;;;-2.62;68.71
69247;BME280;56358;56.328;43.992;2023-02-01T00:14:03;99840.31;;;-2.29;69.07
69247;BME280;56358;56.328;43.992;2023-02-01T00:16:04;99842.81;;;-2.25;69.01
69247;BME280;56358;56.328;43.992;2023-02-01T00:18:05;99844.47;;;-2.22;68.65
69247;BME280;56358;56.328;43.992;2023-02-01T00:20:06;99849.59;;;-2.19;68.58
69247;BME280;56358;56.328;43.992;2023-02-01T00:22:07;99836.47;;;-2.19;68.80
69247;BME280;56358;56.328;43.992;2023-02-01T00:24:09;99839.09;;;-2.19;68.79
69247;BME280;56358;56.328;43.992;2023-02-01T00:26:25;99842.56;;;-2.19;68.74
69247;BME280;56358;56.328;43.992;2023-02-01T00:28:27;99841.78;;;-2.21;68.88
69247;BME280;56358;56.328;43.992;2023-02-01T00:30:28;99832.13;;;-2.20;68.59
69247;BME280;56358;56.328;43.992;2023-02-01T00:32:28;99838.13;;;-2.16;68.60
69247;BME280;56358;56.328;43.992;2023-02-01T00:34:29;99700.19;;;-2.99;68.48
69247;BME280;56358;56.328;43.992;2023-02-01T00:36:30;99834.75;;;-2.20;68.72
69247;BME280;56358;56.328;43.992;2023-02-01T00:38:31;99845.19;;;-2.19;68.89
69247;BME280;56358;56.328;43.992;2023-02-01T00:40:32;99845.97;;;-2.15;68.86
69247;BME280;56358;56.328;43.992;2023-02-01T00:42:33;99761.00;;;-2.63;68.74
69247;BME280;56358;56.328;43.992;2023-02-01T00:44:34;99836.28;;;-2.13;68.82
69247;BME280;56358;56.328;43.992;2023-02-01T00:46:35;99840.75;;;-2.16;68.68
69247;BME280;56358;56.328;43.992;2023-02-01T00:48:36;99844.81;;;-2.08;68.59
69247;BME280;56358;56.328;43.992;2023-02-01T00:50:43;99839.63;;;-2.09;68.77
69247;BME280;56358;56.328;43.992;2023-02-01T00:52:44;99842.19;;;-2.08;68.41
69247;BME280;56358;56.328;43.992;2023-02-01T00:54:45;99837.97;;;-2.12;68.41
69247;BME280;56358;56.328;43.992;2023-02-01T00:56:45;99837.97;;;-2.12;68.46
69247;BME280;56358;56.328;43.992;2023-02-01T00:58:46;99836.22;;;-2.11;68.57
69247;BME280;56358;56.328;43.992;2023-02-01T01:00:47;99836.09;;;-2.08;68.69
69247;BME280;56358;56.328;43.992;2023-02-01T01:02:49;99809.38;;;-2.20;68.67
69247;BME280;56358;56.328;43.992;2023-02-01T01:04:50;99834.31;;;-2.08;68.83
69247;BME280;56358;56.328;43.992;2023-02-01T01:06:50;99821.47;;;-2.15;68.57
69247;BME280;56358;56.328;43.992;2023-02-01T01:08:53;99830.91;;;-2.10;68.82
69247;BME280;56358;56.328;43.992;2023-02-01T01:10:54;99774.63;;;-2.51;68.73
69247;BME280;56358;56.328;43.992;2023-02-01T01:12:55;99844.03;;;-2.10;68.65
69247;BME280;56358;56.328;43.992;2023-02-01T01:14:55;99791.00;;;-2.45;68.57
69247;BME280;56358;56.328;43.992;2023-02-01T01:16:56;99832.94;;;-2.18;68.69
69247;BME280;56358;56.328;43.992;2023-02-01T01:18:57;99845.25;;;-2.20;68.93
69247;BME280;56358;56.328;43.992;2023-02-01T01:20:58;99835.66;;;-2.21;69.00
69247;BME280;56358;56.328;43.992;2023-02-01T01:22:58;99832.44;;;-2.29;68.99
69247;BME280;56358;56.328;43.992;2023-02-01T01:24:59;99732.88;;;-2.84;69.04
69247;BME280;56358;56.328;43.992;2023-02-01T01:27:00;99842.00;;;-2.27;69.18
69247;BME280;56358;56.328;43.992;2023-02-01T01:29:00;99759.63;;;-2.73;69.21
69247;BME280;56358;56.328;43.992;2023-02-01T01:31:01;99748.19;;;-2.72;69.11
69247;BME280;56358;56.328;43.992;2023-02-01T01:33:02;99837.56;;;-2.25;69.20
69247;BME280;56358;56.328;43.992;2023-02-01T01:35:03;99835.84;;;-2.26;69.31
69247;BME280;56358;56.328;43.992;2023-02-01T01:37:04;99749.34;;;-2.79;68.84
69247;BME280;56358;56.328;43.992;2023-02-01T01:39:04;99813.94;;;-2.50;69.38
69247;BME280;56358;56.328;43.992;2023-02-01T01:41:06;99846.50;;;-2.30;69.34
69247;BME280;56358;56.328;43.992;2023-02-01T01:43:14;99844.84;;;-2.33;69.52
69247;BME280;56358;56.328;43.992;2023-02-01T01:45:34;99846.59;;;-2.33;69.53
69247;BME280;56358;56.328;43.992;2023-02-01T01:47:38;99769.41;;;-2.78;69.19
69247;BME280;56358;56.328;43.992;2023-02-01T01:49:43;99833.78;;;-2.43;69.42
69247;BME280;56358;56.328;43.992;2023-02-01T01:51:51;99850.94;;;-2.32;69.72
69247;BME280;56358;56.328;43.992;2023-02-01T01:54:01;99847.34;;;-2.30;69.59
69247;BME280;56358;56.328;43.992;2023-02-01T01:56:02;99839.69;;;-2.36;69.45
69247;BME280;56358;56.328;43.992;2023-02-01T01:58:09;99846.78;;;-2.38;69.86
69247;BME280;56358;56.328;43.992;2023-02-01T02:00:13;99820.63;;;-2.66;70.04
69247;BME280;56358;56.328;43.992;2023-02-01T02:02:15;99845.88;;;-2.37;69.91
69247;BME280;56358;56.328;43.992;2023-02-01T02:04:16;99844.22;;;-2.40;69.68
69247;BME280;56358;56.328;43.992;2023-02-01T02:06:42;99845.81;;;-2.36;69.80
69247;BME280;56358;56.328;43.992;2023-02-01T02:08:45;99865.88;;;-2.34;69.73
69247;BME280;56358;56.328;43.992;2023-02-01T02:10:48;99843.38;;;-2.42;69.99
69247;BME280;56358;56.328;43.992;2023-02-01T02:13:01;99860.75;;;-2.38;69.89
69247;BME280;56358;56.328;43.992;2023-02-01T02:15:01;99891.41;;;-2.38;69.97
69247;BME280;56358;56.328;43.992;2023-02-01T02:17:24;99865.88;;;-2.34;69.99
69247;BME280;56358;56.328;43.992;2023-02-01T02:26:46;99866.06;;;-2.39;69.81
69247;BME280;56358;56.328;43.992;2023-02-01T02:31:30;99878.47;;;-2.44;70.17
69247;BME280;56358;56.328;43.992;2023-02-01T02:33:52;99864.56;;;-2.46;70.26
69247;BME280;56358;56.328;43.992;2023-02-01T02:38:26;99866.38;;;-2.48;70.21
69247;BME280;56358;56.328;43.992;2023-02-01T02:40:40;99722.31;;;-3.33;70.16
69247;BME280;56358;56.328;43.992;2023-02-01T02:49:56;99871.69;;;-2.50;70.13
69247;BME280;56358;56.328;43.992;2023-02-01T02:52:18;99769.53;;;-3.08;70.22
69247;BME280;56358;56.328;43.992;2023-02-01T02:54:42;99863.03;;;-2.54;70.40
69247;BME280;56358;56.328;43.992;2023-02-01T02:56:49;99859.88;;;-2.63;70.56
69247;BME280;56358;56.328;43.992;2023-02-01T02:59:12;99873.53;;;-2.54;70.52
69247;BME280;56358;56.328;43.992;2023-02-01T03:01:33;99884.09;;;-2.55;70.34
69247;BME280;56358;56.328;43.992;2023-02-01T03:03:52;99877.88;;;-2.53;70.43
69247;BME280;56358;56.328;43.992;2023-02-01T03:06:16;99873.47;;;-2.50;70.48
69247;BME280;56358;56.328;43.992;2023-02-01T03:08:24;99875.16;;;-2.49;70.36
69247;BME280;56358;56.328;43.992;2023-02-01T03:13:26;99853.72;;;-2.62;70.36
69247;BME280;56358;56.328;43.992;2023-02-01T03:15:48;99886.28;;;-2.43;70.24
69247;BME280;56358;56.328;43.992;2023-02-01T03:17:51;99876.97;;;-2.51;70.27
69247;BME280;56358;56.328;43.992;2023-02-01T03:19:57;99791.22;;;-3.03;70.17
69247;BME280;56358;56.328;43.992;2023-02-01T03:22:06;99913.56;;;-2.47;70.43
69247;BME280;56358;56.328;43.992;2023-02-01T03:26:17;99883.78;;;-2.46;70.08
69247;BME280;56358;56.328;43.992;2023-02-01T03:28:22;99879.38;;;-2.45;69.99
69247;BME280;56358;56.328;43.992;2023-02-01T03:30:27;99881.16;;;-2.46;70.17
69247;BME280;56358;56.328;43.992;2023-02-01T03:32:29;99838.13;;;-2.67;70.18
69247;BME280;56358;56.328;43.992;2023-02-01T03:34:50;99852.25;;;-2.71;70.15
69247;BME280;56358;56.328;43.992;2023-02-01T03:36:58;99882.88;;;-2.45;70.07
69247;BME280;56358;56.328;43.992;2023-02-01T03:39:07;99876.38;;;-2.60;70.10
69247;BME280;56358;56.328;43.992;2023-02-01T03:41:23;99885.59;;;-2.48;70.28
69247;BME280;56358;56.328;43.992;2023-02-01T03:43:29;99895.25;;;-2.48;70.22
69247;BME280;56358;56.328;43.992;2023-02-01T03:45:41;99802.53;;;-3.01;70.17
69247;BME280;56358;56.328;43.992;2023-02-01T03:47:47;99816.34;;;-2.96;70.51
69247;BME280;56358;56.328;43.992;2023-02-01T03:50:04;99896.31;;;-2.54;70.47
69247;BME280;56358;56.328;43.992;2023-02-01T03:52:11;99900.66;;;-2.53;70.63
69247;BME280;56358;56.328;43.992;2023-02-01T03:54:14;99897.09;;;-2.52;70.37
69247;BME280;56358;56.328;43.992;2023-02-01T03:56:18;99908.47;;;-2.51;70.28
69247;BME280;56358;56.328;43.992;2023-02-01T03:58:22;99902.47;;;-2.55;70.32
69247;BME280;56358;56.328;43.992;2023-02-01T04:00:25;99895.44;;;-2.55;70.49
69247;BME280;56358;56.328;43.992;2023-02-01T04:02:25;99910.19;;;-2.50;70.52
69247;BME280;56358;56.328;43.992;2023-02-01T04:04:26;99913.63;;;-2.48;70.55
69247;BME280;56358;56.328;43.992;2023-02-01T04:06:27;99911.09;;;-2.51;70.43
69247;BME280;56358;56.328;43.992;2023-02-01T04:08:27;99924.13;;;-2.48;70.45
69247;BME280;56358;56.328;43.992;2023-02-01T04:10:28;99856.47;;;-2.94;70.39
69247;BME280;56358;56.328;43.992;2023-02-01T04:12:29;99924.13;;;-2.48;70.51
69247;BME280;56358;56.328;43.992;2023-02-01T04:14:29;99925.38;;;-2.60;70.69
69247;BME280;56358;56.328;43.992;2023-02-01T04:16:31;99858.31;;;-2.96;70.41
69247;BME280;56358;56.328;43.992;2023-02-01T04:18:32;99936.19;;;-2.43;70.36
69247;BME280;56358;56.328;43.992;2023-02-01T04:20:33;99940.41;;;-2.39;70.39
69247;BME280;56358;56.328;43.992;2023-02-01T04:22:33;99932.69;;;-2.43;70.22
69247;BME280;56358;56.328;43.992;2023-02-01T04:24:34;99939.44;;;-2.36;70.51
69247;BME280;56358;56.328;43.992;2023-02-01T04:26:35;99944.63;;;-2.33;70.13
69247;BME280;56358;56.328;43.992;2023-02-01T04:28:35;99937.59;;;-2.32;69.91
69247;BME280;56358;56.328;43.992;2023-02-01T04:30:36;99857.91;;;-2.83;69.72
69247;BME280;56358;56.328;43.992;2023-02-01T04:32:37;99938.72;;;-2.40;69.91
69247;BME280;56358;56.328;43.992;2023-02-01T04:34:38;99860.66;;;-2.88;69.87
69247;BME280;56358;56.328;43.992;2023-02-01T04:36:39;99951.84;;;-2.40;69.76
69247;BME280;56358;56.328;43.992;2023-02-01T04:38:39;99951.88;;;-2.41;70.21
69247;BME280;56358;56.328;43.992;2023-02-01T04:40:40;99941.47;;;-2.44;69.99
69247;BME280;56358;56.328;43.992;2023-02-01T04:42:41;99885.22;;;-2.89;70.20
69247;BME280;56358;56.328;43.992;2023-02-01T04:44:41;99856.47;;;-2.94;70.32
69247;BME280;56358;56.328;43.992;2023-02-01T04:46:43;99930.38;;;-2.53;70.24
69247;BME280;56358;56.328;43.992;2023-02-01T04:48:44;99944.09;;;-2.44;70.15
69247;BME280;56358;56.328;43.992;2023-02-01T04:50:46;99948.47;;;-2.43;70.24
69247;BME280;56358;56.328;43.992;2023-02-01T04:52:47;99953.72;;;-2.43;70.28
69247;BME280;56358;56.328;43.992;2023-02-01T04:54:48;99948.50;;;-2.45;70.06
69247;BME280;56358;56.328;43.992;2023-02-01T04:56:48;99952.88;;;-2.45;70.07
69247;BME280;56358;56.328;43.992;2023-02-01T04:58:49;99952.69;;;-2.39;69.83
69247;BME280;56358;56.328;43.992;2023-02-01T05:00:50;99870.56;;;-2.96;69.72
69247;BME280;56358;56.328;43.992;2023-02-01T05:02:51;99945.22;;;-2.51;70.06
69247;BME280;56358;56.328;43.992;2023-02-01T05:04:52;99959.84;;;-2.44;69.94
69247;BME280;56358;56.328;43.992;2023-02-01T05:06:54;99961.59;;;-2.43;70.00
69247;BME280;56358;56.328;43.992;2023-02-01T05:08:55;99983.38;;;-2.41;69.80
69247;BME280;56358;56.328;43.992;2023-02-01T05:10:55;99967.63;;;-2.41;69.94
69247;BME280;56358;56.328;43.992;2023-02-01T05:12:56;99893.75;;;-2.84;69.88
69247;BME280;56358;56.328;43.992;2023-02-01T05:15:15;99977.16;;;-2.39;69.77
69247;BME280;56358;56.328;43.992;2023-02-01T05:17:16;99949.41;;;-2.46;69.41
69247;BME280;56358;56.328;43.992;2023-02-01T05:19:17;99875.00;;;-2.98;69.68
69247;BME280;56358;56.328;43.992;2023-02-01T05:21:17;99968.44;;;-2.39;69.95
69247;BME280;56358;56.328;43.992;2023-02-01T05:23:18;99962.34;;;-2.40;69.46
69247;BME280;56358;56.328;43.992;2023-02-01T05:25:19;99957.13;;;-2.41;69.67
69247;BME280;56358;56.328;43.992;2023-02-01T05:27:19;99976.06;;;-2.31;69.37
69247;BME280;56358;56.328;43.992;2023-02-01T05:29:20;99908.19;;;-2.69;69.38
69247;BME280;56358;56.328;43.992;2023-02-01T05:31:21;99982.06;;;-2.28;69.17
69247;BME280;56358;56.328;43.992;2023-02-01T05:33:22;99977.75;;;-2.29;69.32
69247;BME280;56358;56.328;43.992;2023-02-01T05:35:23;99966.53;;;-2.34;68.85
69247;BME280;56358;56.328;43.992;2023-02-01T05:37:23;99999.59;;;-2.28;69.20
69247;BME280;56358;56.328;43.992;2023-02-01T05:39:24;99995.31;;;-2.31;69.16
69247;BME280;56358;56.328;43.992;2023-02-01T05:41:25;99980.44;;;-2.32;69.09
69247;BME280;56358;56.328;43.992;2023-02-01T05:43:25;99997.03;;;-2.30;68.98
69247;BME280;56358;56.328;43.992;2023-02-01T05:45:26;99994.28;;;-2.27;69.19
69247;BME280;56358;56.328;43.992;2023-02-01T05:47:27;99988.19;;;-2.27;69.28
69247;BME280;56358;56.328;43.992;2023-02-01T05:49:27;99991.59;;;-2.24;68.70
69247;BME280;56358;56.328;43.992;2023-02-01T05:51:28;99993.38;;;-2.26;68.51
69247;BME280;56358;56.328;43.992;2023-02-01T05:53:29;99911.03;;;-2.77;68.39
69247;BME280;56358;56.328;43.992;2023-02-01T05:55:30;99989.34;;;-2.36;68.74
69247;BME280;56358;56.328;43.992;2023-02-01T05:57:30;99995.31;;;-2.31;68.66
69247;BME280;56358;56.328;43.992;2023-02-01T05:59:31;99987.38;;;-2.29;68.60
69247;BME280;56358;56.328;43.992;2023-02-01T06:01:32;99942.91;;;-2.61;68.61
69247;BME280;56358;56.328;43.992;2023-02-01T06:03:32;99987.06;;;-2.20;68.37
69247;BME280;56358;56.328;43.992;2023-02-01T06:05:33;99992.25;;;-2.17;68.38
69247;BME280;56358;56.328;43.992;2023-02-01T06:07:33;99979.97;;;-2.16;68.18
69247;BME280;56358;56.328;43.992;2023-02-01T06:09:35;100004.19;;;-2.08;68.08
69247;BME280;56358;56.328;43.992;2023-02-01T06:11:36;100002.59;;;-2.12;67.58
69247;BME280;56358;56.328;43.992;2023-02-01T06:13:36;99975.72;;;-2.21;67.87
69247;BME280;56358;56.328;43.992;2023-02-01T06:15:38;99885.81;;;-2.81;67.57
69247;BME280;56358;56.328;43.992;2023-02-01T06:17:43;99974.75;;;-2.18;67.68
69247;BME280;56358;56.328;43.992;2023-02-01T06:19:44;100017.72;;;-1.94;67.76
69247;BME280;56358;56.328;43.992;2023-02-01T06:21:45;99946.00;;;-2.23;67.29
69247;BME280;56358;56.328;43.992;2023-02-01T06:23:45;100025.94;;;-1.78;67.16
69247;BME280;56358;56.328;43.992;2023-02-01T06:25:46;100021.28;;;-1.70;66.95
69247;BME280;56358;56.328;43.992;2023-02-01T06:27:47;99953.97;;;-1.99;66.50
69247;BME280;56358;56.328;43.992;2023-02-01T06:29:48;99992.69;;;-1.79;66.23
69247;BME280;56358;56.328;43.992;2023-02-01T06:31:49;100025.31;;;-1.59;65.97
69247;BME280;56358;56.328;43.992;2023-02-01T06:33:50;100013.72;;;-1.54;66.06
69247;BME280;56358;56.328;43.992;2023-02-01T06:35:59;100021.56;;;-1.52;66.05
69247;BME280;56358;56.328;43.992;2023-02-01T06:38:00;100016.94;;;-1.45;65.57
69247;BME280;56358;56.328;43.992;2023-02-01T06:40:00;99989.56;;;-1.65;65.61
69247;BME280;56358;56.328;43.992;2023-02-01T06:42:01;100030.94;;;-1.45;65.52
69247;BME280;56358;56.328;43.992;2023-02-01T06:44:02;100009.25;;;-1.52;65.56
69247;BME280;56358;56.328;43.992;2023-02-01T06:46:05;100005.84;;;-1.54;65.36
69247;BME280;56358;56.328;43.992;2023-02-01T06:48:06;100000.53;;;-1.52;65.16
69247;BME280;56358;56.328;43.992;2023-02-01T06:50:07;100025.97;;;-1.29;65.12
69247;BME280;56358;56.328;43.992;2023-02-01T06:52:08;100028.59;;;-1.29;64.86
69247;BME280;56358;56.328;43.992;2023-02-01T06:54:09;100021.47;;;-1.25;64.69
69247;BME280;56358;56.328;43.992;2023-02-01T06:56:09;100038.06;;;-1.23;64.53
69247;BME280;56358;56.328;43.992;2023-02-01T06:58:10;100036.03;;;-1.40;64.96
69247;BME280;56358;56.328;43.992;2023-02-01T07:00:11;100027.56;;;-1.23;64.71
69247;BME280;56358;56.328;43.992;2023-02-01T07:02:12;100044.19;;;-1.23;64.78
69247;BME280;56358;56.328;43.992;2023-02-01T07:04:13;100055.59;;;-1.24;64.55
69247;BME280;56358;56.328;43.992;2023-02-01T07:06:13;99979.06;;;-1.65;64.56
69247;BME280;56358;56.328;43.992;2023-02-01T07:08:14;100038.06;;;-1.23;64.81
69247;BME280;56358;56.328;43.992;2023-02-01T07:10:15;100037.78;;;-1.15;64.37
69247;BME280;56358;56.328;43.992;2023-02-01T07:12:16;100027.38;;;-1.19;64.17
69247;BME280;56358;56.328;43.992;2023-02-01T07:14:16;100045.31;;;-1.06;64.52
69247;BME280;56358;56.328;43.992;2023-02-01T07:16:18;99974.88;;;-1.45;64.52
69247;BME280;56358;56.328;43.992;2023-02-01T07:18:19;100044.84;;;-0.92;64.15
69247;BME280;56358;56.328;43.992;2023-02-01T07:20:20;100037.16;;;-0.98;63.72
69247;BME280;56358;56.328;43.992;2023-02-01T07:22:21;100044.53;;;-0.85;63.71
69247;BME280;56358;56.328;43.992;2023-02-01T07:24:22;100050.81;;;-0.89;63.12
69247;BME280;56358;56.328;43.992;2023-02-01T07:26:22;99886.94;;;-1.86;63.17
69247;BME280;56358;56.328;43.992;2023-02-01T07:28:23;100040.91;;;-0.82;63.25
69247;BME280;56358;56.328;43.992;2023-02-01T07:30:24;99968.06;;;-1.27;62.82
69247;BME280;56358;56.328;43.992;2023-02-01T07:32:26;100041.88;;;-0.85;62.76
69247;BME280;56358;56.328;43.992;2023-02-01T07:34:26;100036.97;;;-0.94;63.47
69247;BME280;56358;56.328;43.992;2023-02-01T07:36:27;100036.75;;;-0.88;63.54
69247;BME280;56358;56.328;43.992;2023-02-01T07:38:28;100035.84;;;-0.87;63.14
69247;BME280;56358;56.328;43.992;2023-02-01T07:40:29;100034.13;;;-0.88;63.12
69247;BME280;56358;56.328;43.992;2023-02-01T07:42:30;100035.91;;;-0.88;63.05
69247;BME280;56358;56.328;43.992;2023-02-01T07:44:31;100045.41;;;-0.84;62.96
69247;BME280;56358;56.328;43.992;2023-02-01T07:46:31;100040.13;;;-0.84;62.78
69247;BME280;56358;56.328;43.992;2023-02-01T07:48:32;100034.28;;;-0.69;62.76
69247;BME280;56358;56.328;43.992;2023-02-01T07:50:34;100030.91;;;-0.72;62.80
69247;BME280;56358;56.328;43.992;2023-02-01T07:52:34;100048.59;;;-0.54;62.77
69247;BME280;56358;56.328;43.992;2023-02-01T07:54:36;100041.22;;;-0.44;62.55
69247;BME280;56358;56.328;43.992;2023-02-01T07:56:36;100040.06;;;-0.37;62.53
69247;BME280;56358;56.328;43.992;2023-02-01T07:58:37;100055.69;;;-0.32;62.02
69247;BME280;56358;56.328;43.992;2023-02-01T08:00:37;100047.41;;;-0.23;61.72
69247;BME280;56358;56.328;43.992;2023-02-01T08:03:03;100057.16;;;-0.25;61.70
69247;BME280;56358;56.328;43.992;2023-02-01T08:05:04;100050.16;;;-0.26;61.54
69247;BME280;56358;56.328;43.992;2023-02-01T08:07:05;100043.22;;;-0.28;61.71
69247;BME280;56358;56.328;43.992;2023-02-01T08:09:07;100045.19;;;-0.34;61.15
69247;BME280;56358;56.328;43.992;2023-02-01T08:11:11;100043.59;;;-0.38;61.66
69247;BME280;56358;56.328;43.992;2023-02-01T08:13:12;100015.53;;;-0.61;62.31
69247;BME280;56358;56.328;43.992;2023-02-01T08:15:12;100046.97;;;-0.34;62.56
69247;BME280;56358;56.328;43.992;2023-02-01T08:17:13;100030.69;;;-0.44;61.92
69247;BME280;56358;56.328;43.992;2023-02-01T08:19:13;100042.63;;;-0.35;61.91
69247;BME280;56358;56.328;43.992;2023-02-01T08:21:23;100048.03;;;-0.38;62.08
69247;BME280;56358;56.328;43.992;2023-02-01T08:23:24;100030.56;;;-0.41;62.14
69247;BME280;56358;56.328;43.992;2023-02-01T08:25:25;100054.81;;;-0.32;62.19
69247;BME280;56358;56.328;43.992;2023-02-01T08:27:26;100024.19;;;-0.35;62.38
69247;BME280;56358;56.328;43.992;2023-02-01T08:29:27;100047.66;;;-0.29;61.46
69247;BME280;56358;56.328;43.992;2023-02-01T08:31:29;100057.16;;;-0.25;61.84
69247;BME280;56358;56.328;43.992;2023-02-01T08:33:30;100058.06;;;-0.26;61.61
69247;BME280;56358;56.328;43.992;2023-02-01T08:35:31;99866.59;;;-1.33;61.98
69247;BME280;56358;56.328;43.992;2023-02-01T08:37:32;100053.41;;;-0.19;61.99
69247;BME280;56358;56.328;43.992;2023-02-01T08:39:32;100035.94;;;-0.22;62.33
69247;BME280;56358;56.328;43.992;2023-02-01T08:41:33;100045.78;;;-0.25;62.17
69247;BME280;56358;56.328;43.992;2023-02-01T08:43:33;100053.47;;;-0.21;62.54
69247;BME280;56358;56.328;43.992;2023-02-01T08:45:34;99990.84;;;-0.80;63.01
69247;BME280;56358;56.328;43.992;2023-02-01T08:47:35;100046.84;;;-0.31;63.42
69247;BME280;56358;56.328;43.992;2023-02-01T08:49:35;100039.81;;;-0.30;63.65
69247;BME280;56358;56.328;43.992;2023-02-01T08:51:36;100051.75;;;-0.22;63.73
69247;BME280;56358;56.328;43.992;2023-02-01T08:53:38;100050.53;;;-0.13;63.34
69247;BME280;56358;56.328;43.992;2023-02-01T08:55:40;100039.75;;;-0.29;63.88
69247;BME280;56358;56.328;43.992;2023-02-01T08:57:41;100045.56;;;-0.21;63.81
69247;BME280;56358;56.328;43.992;2023-02-01T08:59:43;100051.66;;;-0.19;64.43
69247;BME280;56358;56.328;43.992;2023-02-01T09:01:47;100063.34;;;-0.04;64.00
69247;BME280;56358;56.328;43.992;2023-02-01T09:03:48;100056.34;;;-0.05;64.17
69247;BME280;56358;56.328;43.992;2023-02-01T09:05:48;100066.22;;;-0.10;64.10
69247;BME280;56358;56.328;43.992;2023-02-01T09:07:49;100051.50;;;-0.15;64.27
69247;BME280;56358;56.328;43.992;2023-02-01T09:09:50;100033.13;;;-0.17;64.19
69247;BME280;56358;56.328;43.992;2023-02-01T09:11:50;100062.34;;;-0.01;64.58
69247;BME280;56358;56.328;43.992;2023-02-01T09:13:51;100061.97;;;0.08;64.38
69247;BME280;56358;56.328;43.992;2023-02-01T09:15:51;100076.00;;;0.09;64.37
69247;BME280;56358;56.328;43.992;2023-02-01T09:17:52;100050.25;;;-0.07;64.85
69247;BME280;56358;56.328;43.992;2023-02-01T09:19:53;100065.91;;;-0.02;65.17
69247;BME280;56358;56.328;43.992;2023-02-01T09:21:53;100061.00;;;-0.11;65.30
69247;BME280;56358;56.328;43.992;2023-02-01T09:23:54;100070.69;;;-0.12;66.16
69247;BME280;56358;56.328;43.992;2023-02-01T09:25:59;100073.97;;;-0.07;66.52
69247;BME280;56358;56.328;43.992;2023-02-01T09:28:00;99994.47;;;-0.61;65.48
69247;BME280;56358;56.328;43.992;2023-02-01T09:30:01;100073.13;;;-0.07;65.48
69247;BME280;56358;56.328;43.992;2023-02-01T09:32:03;100075.63;;;-0.04;65.69
69247;BME280;56358;56.328;43.992;2023-02-01T09:34:04;100005.13;;;-0.42;65.45
69247;BME280;56358;56.328;43.992;2023-02-01T09:36:05;100056.28;;;-0.03;65.35
69247;BME280;56358;56.328;43.992;2023-02-01T09:38:06;100047.09;;;-0.15;64.90
69247;BME280;56358;56.328;43.992;2023-02-01T09:40:12;100076.44;;;-0.02;65.60
69247;BME280;56358;56.328;43.992;2023-02-01T09:47:21;100065.38;;;-0.10;65.53
69247;BME280;56358;56.328;43.992;2023-02-01T09:49:28;100054.66;;;-0.28;65.59
69247;BME280;56358;56.328;43.992;2023-02-01T09:51:36;100081.41;;;-0.17;65.56
69247;BME280;56358;56.328;43.992;2023-02-01T09:53:43;99968.16;;;-0.61;66.22
69247;BME280;56358;56.328;43.992;2023-02-01T09:55:48;100059.97;;;-0.07;66.16
69247;BME280;56358;56.328;43.992;2023-02-01T09:58:03;100065.00;;;-0.01;65.34
69247;BME280;56358;56.328;43.992;2023-02-01T10:00:25;100042.69;;;-0.14;65.61
69247;BME280;56358;56.328;43.992;2023-02-01T10:02:28;99999.59;;;-0.56;65.75
69247;BME280;56358;56.328;43.992;2023-02-01T10:04:30;100066.41;;;-0.14;66.46
69247;BME280;56358;56.328;43.992;2023-02-01T10:06:49;100009.97;;;-0.31;66.38
69247;BME280;56358;56.328;43.992;2023-02-01T10:14:08;100034.25;;;-0.23;66.18
69247;BME280;56358;56.328;43.992;2023-02-01T10:21:01;100058.38;;;-0.11;66.39
69247;BME280;56358;56.328;43.992;2023-02-01T10:28:12;100059.22;;;-0.11;66.61
69247;BME280;56358;56.328;43.992;2023-02-01T10:30:20;100061.38;;;-0.21;66.41
69247;BME280;56358;56.328;43.992;2023-02-01T10:32:24;100059.53;;;-0.41;67.42
69247;BME280;56358;56.328;43.992;2023-02-01T10:34:32;100059.09;;;-0.30;66.78
69247;BME280;56358;56.328;43.992;2023-02-01T10:36:39;100061.44;;;-0.22;67.49
69247;BME280;56358;56.328;43.992;2023-02-01T10:38:40;100059.41;;;-0.15;66.98
69247;BME280;56358;56.328;43.992;2023-02-01T10:40:43;100068.06;;;-0.12;66.70
69247;BME280;56358;56.328;43.992;2023-02-01T10:42:44;100055.31;;;-0.23;66.36
69247;BME280;56358;56.328;43.992;2023-02-01T10:44:45;100038.03;;;-0.30;66.81
69247;BME280;56358;56.328;43.992;2023-02-01T10:46:49;100066.22;;;-0.10;67.21
69247;BME280;56358;56.328;43.992;2023-02-01T10:48:52;99968.09;;;-0.59;66.84
69247;BME280;56358;56.328;43.992;2023-02-01T10:51:06;100051.06;;;-0.05;66.52
69247;BME280;56358;56.328;43.992;2023-02-01T10:53:41;100053.47;;;0.02;65.99
69247;BME280;56358;56.328;43.992;2023-02-01T10:55:48;100047.00;;;-0.12;65.85
69247;BME280;56358;56.328;43.992;2023-02-01T11:00:46;100052.41;;;0.06;66.63
69247;BME280;56358;56.328;43.992;2023-02-01T11:02:47;100071.47;;;0.12;66.06
69247;BME280;56358;56.328;43.992;2023-02-01T11:04:50;100015.75;;;-0.21;65.86
69247;BME280;56358;56.328;43.992;2023-02-01T11:06:53;100073.38;;;0.09;65.87
69247;BME280;56358;56.328;43.992;2023-02-01T11:11:06;100058.91;;;0.19;65.28
69247;BME280;56358;56.328;43.992;2023-02-01T11:13:17;100062.69;;;0.12;64.66
69247;BME280;56358;56.328;43.992;2023-02-01T11:15:20;100054.19;;;0.05;64.96
69247;BME280;56358;56.328;43.992;2023-02-01T11:17:25;99995.81;;;-0.28;65.14
69247;BME280;56358;56.328;43.992;2023-02-01T11:19:28;100074.81;;;0.16;65.22
69247;BME280;56358;56.328;43.992;2023-02-01T11:21:29;100068.47;;;0.22;65.32
69247;BME280;56358;56.328;43.992;2023-02-01T11:23:32;100013.44;;;-0.08;65.63
69247;BME280;56358;56.328;43.992;2023-02-01T11:25:37;100071.56;;;0.31;65.35
69247;BME280;56358;56.328;43.992;2023-02-01T11:27:38;100076.63;;;0.36;65.40
69247;BME280;56358;56.328;43.992;2023-02-01T11:29:42;100043.94;;;0.20;65.55
69247;BME280;56358;56.328;43.992;2023-02-01T11:31:45;100084.28;;;0.42;65.60